createdAt,value
2023-05-24T00:02:25.588Z,36.0
2023-05-24T00:05:26.467Z,57.0
2023-05-24T00:08:26.023Z,38.0
2023-05-24T00:11:27.461Z,18.0
2023-05-24T00:14:25.610Z,0.0
2023-05-24T00:17:25.768Z,4.0
2023-05-24T00:20:25.892Z,2.0
2023-05-24T00:23:25.636Z,55.0
2023-05-24T00:26:25.939Z,49.0
2023-05-24T00:29:25.532Z,19.0
2023-05-24T00:32:25.935Z,11.0
2023-05-24T00:35:25.703Z,22.0
2023-05-24T00:38:25.871Z,174.0
2023-05-24T00:41:25.629Z,69.0
2023-05-24T00:44:25.703Z,3.0
2023-05-24T00:47:27.346Z,5.0
2023-05-24T00:50:25.579Z,4.0
2023-05-24T00:53:25.520Z,20.0
2023-05-24T00:56:26.185Z,50.0
2023-05-24T00:59:25.531Z,57.0
2023-05-24T01:02:26.154Z,30.0
2023-05-24T01:05:26.082Z,66.0
2023-05-24T01:08:25.564Z,32.0
2023-05-24T01:11:25.589Z,54.0
2023-05-24T01:14:25.581Z,31.0
2023-05-24T01:17:25.772Z,104.0
2023-05-24T01:20:25.795Z,98.0
2023-05-24T01:23:25.692Z,56.0
2023-05-24T01:26:25.538Z,28.0
2023-05-24T01:29:25.458Z,70.0
2023-05-24T01:32:25.838Z,64.0
2023-05-24T01:35:25.697Z,77.0
2023-05-24T01:38:26.811Z,45.0
2023-05-24T01:41:25.601Z,84.0
2023-05-24T01:44:25.493Z,73.0
2023-05-24T01:47:25.928Z,66.0
2023-05-24T01:50:25.900Z,60.0
2023-05-24T01:53:25.737Z,105.0
2023-05-24T01:56:25.547Z,85.0
2023-05-24T01:59:25.558Z,57.0
2023-05-24T02:02:26.044Z,82.0
2023-05-24T02:05:25.835Z,100.0
2023-05-24T02:08:25.608Z,103.0
2023-05-24T02:11:25.485Z,64.0
2023-05-24T02:14:25.528Z,59.0
2023-05-24T02:17:25.795Z,63.0
2023-05-24T02:20:25.608Z,95.0
2023-05-24T02:23:25.682Z,42.0
2023-05-24T02:26:29.270Z,34.0
2023-05-24T02:29:25.729Z,51.0
2023-05-24T02:32:25.791Z,37.0
2023-05-24T02:35:25.705Z,7.0
2023-05-24T02:38:25.600Z,41.0
2023-05-24T02:41:25.592Z,50.0
2023-05-24T02:44:25.523Z,58.0
2023-05-24T02:47:26.010Z,65.0
2023-05-24T02:50:25.629Z,37.0
2023-05-24T02:53:25.988Z,40.0
2023-05-24T02:56:25.622Z,60.0
2023-05-24T02:59:25.561Z,44.0
2023-05-24T03:02:25.684Z,27.0
2023-05-24T03:05:26.199Z,75.0
2023-05-24T03:08:25.620Z,92.0
2023-05-24T03:11:25.622Z,94.0
2023-05-24T03:14:25.652Z,97.0
2023-05-24T03:17:26.340Z,126.0
2023-05-24T03:20:27.486Z,112.0
2023-05-24T03:23:25.881Z,124.0
2023-05-24T03:26:25.855Z,110.0
2023-05-24T03:29:25.645Z,107.0
2023-05-24T03:32:25.946Z,79.0
2023-05-24T03:35:25.628Z,70.0
2023-05-24T03:38:25.578Z,85.0
2023-05-24T03:41:25.831Z,117.0
2023-05-24T03:44:25.585Z,124.0
2023-05-24T03:47:35.927Z,119.0
2023-05-24T03:50:25.670Z,74.0
2023-05-24T03:53:25.524Z,59.0
2023-05-24T03:56:25.469Z,94.0
2023-05-24T03:59:25.613Z,87.0
2023-05-24T04:02:35.902Z,90.0
2023-05-24T04:05:25.982Z,121.0
2023-05-24T04:08:26.918Z,65.0
2023-05-24T04:11:25.541Z,84.0
2023-05-24T04:14:25.494Z,132.0
2023-05-24T04:17:27.150Z,344.0
2023-05-24T04:20:26.064Z,668.0
2023-05-24T04:23:30.101Z,993.0
2023-05-24T04:26:25.774Z,1152.0
2023-05-24T04:29:25.705Z,1875.0
2023-05-24T04:32:25.843Z,2076.0
2023-05-24T04:35:25.639Z,1023.0
2023-05-24T04:38:25.592Z,1923.0
2023-05-24T04:41:25.519Z,4176.0
2023-05-24T04:44:25.578Z,5184.0
2023-05-24T04:47:27.937Z,6513.0
2023-05-24T04:50:25.558Z,7060.0
2023-05-24T04:53:26.443Z,10278.0
2023-05-24T04:56:25.573Z,10582.0
2023-05-24T04:59:27.835Z,14871.0
2023-05-24T05:02:25.650Z,9907.0
2023-05-24T05:05:26.249Z,10075.0
2023-05-24T05:08:25.568Z,9783.0
2023-05-24T05:11:28.611Z,14364.0
2023-05-24T05:14:25.466Z,11212.0
2023-05-24T05:17:25.854Z,2302.0
2023-05-24T05:20:26.066Z,2549.0
2023-05-24T05:23:25.552Z,4989.0
2023-05-24T05:26:25.530Z,4728.0
2023-05-24T05:29:25.601Z,7982.0
2023-05-24T05:32:25.933Z,11528.0
2023-05-24T05:35:25.936Z,1589.0
2023-05-24T05:38:25.606Z,873.0
2023-05-24T05:41:26.367Z,2895.0
2023-05-24T05:44:26.464Z,2791.0
2023-05-24T05:47:25.791Z,789.0
2023-05-24T05:50:25.687Z,2404.0
2023-05-24T05:53:25.551Z,1178.0
2023-05-24T05:56:25.577Z,3045.0
2023-05-24T05:59:27.212Z,1512.0
2023-05-24T06:02:25.895Z,1127.0
2023-05-24T06:05:26.588Z,2410.0
2023-05-24T06:08:25.561Z,1174.0
2023-05-24T06:11:25.560Z,352.0
2023-05-24T06:14:25.644Z,236.0
2023-05-24T06:17:25.828Z,339.0
2023-05-24T06:20:35.819Z,207.0
2023-05-24T06:23:25.552Z,170.0
2023-05-24T06:26:25.582Z,161.0
2023-05-24T06:29:25.642Z,410.0
2023-05-24T06:32:26.143Z,216.0
2023-05-24T06:35:35.551Z,313.0
2023-05-24T06:38:25.473Z,301.0
2023-05-24T06:44:25.555Z,172.0
2023-05-24T06:47:26.101Z,173.0
2023-05-24T06:50:26.440Z,155.0
2023-05-24T06:53:25.496Z,170.0
2023-05-24T06:56:27.827Z,147.0
2023-05-24T06:59:25.637Z,159.0
2023-05-24T07:02:26.308Z,189.0
2023-05-24T07:05:25.768Z,175.0
2023-05-24T07:08:25.733Z,174.0
2023-05-24T07:11:25.641Z,221.0
2023-05-24T07:14:25.554Z,142.0
2023-05-24T07:17:25.892Z,173.0
2023-05-24T07:20:27.002Z,148.0
2023-05-24T07:23:37.882Z,195.0
2023-05-24T07:32:36.142Z,184.0
2023-05-24T07:35:26.214Z,217.0
2023-05-24T07:38:27.992Z,769.0
2023-05-24T07:41:25.864Z,195.0
2023-05-24T07:44:25.812Z,190.0
2023-05-24T07:47:26.263Z,147.0
2023-05-24T07:50:26.052Z,197.0
2023-05-24T07:53:25.872Z,237.0
2023-05-24T07:56:25.764Z,197.0
2023-05-24T07:59:25.768Z,141.0
2023-05-24T08:05:26.430Z,14.0
2023-05-24T08:08:26.227Z,53.0
2023-05-24T08:11:26.006Z,328.0
2023-05-24T08:14:26.479Z,248.0
2023-05-24T08:17:26.396Z,59.0
2023-05-24T08:20:26.561Z,6.0
2023-05-24T08:23:25.844Z,3.0
2023-05-24T08:26:25.894Z,26.0
2023-05-24T08:29:26.829Z,16.0
2023-05-24T08:32:27.546Z,0.0
2023-05-24T08:35:38.030Z,96.0
2023-05-24T08:38:26.013Z,6.0
2023-05-24T08:41:26.037Z,11.0
2023-05-24T08:44:37.273Z,26.0
2023-05-24T08:47:26.069Z,8.0
2023-05-24T08:50:26.375Z,237.0
2023-05-24T08:53:26.167Z,483.0
2023-05-24T08:56:26.147Z,140.0
2023-05-24T09:11:36.873Z,7.0
2023-05-24T09:14:34.109Z,7.0
2023-05-24T09:17:25.874Z,64.0
2023-05-24T09:20:25.957Z,118.0
2023-05-24T09:23:29.234Z,34.0
2023-05-24T09:26:25.565Z,23.0
2023-05-24T09:29:25.965Z,45.0
2023-05-24T09:32:28.916Z,101.0
2023-05-24T09:35:26.153Z,0.0
2023-05-24T09:38:28.161Z,5.0
2023-05-24T09:41:29.634Z,130.0
2023-05-24T09:44:25.514Z,77.0
2023-05-24T09:47:40.404Z,14.0
2023-05-24T09:50:25.708Z,108.0
2023-05-24T09:53:25.881Z,69.0
2023-05-24T09:56:25.948Z,57.0
2023-05-24T09:59:28.060Z,52.0
2023-05-24T10:02:28.499Z,75.0
2023-05-24T10:05:29.985Z,193.0
2023-05-24T10:08:26.453Z,94.0
2023-05-24T10:11:28.185Z,107.0
2023-05-24T10:14:25.597Z,98.0
2023-05-24T10:17:25.990Z,37.0
2023-05-24T10:20:26.050Z,156.0
2023-05-24T10:23:26.184Z,48.0
2023-05-24T10:26:25.582Z,42.0
2023-05-24T10:29:25.587Z,146.0
2023-05-24T10:32:26.327Z,181.0
2023-05-24T10:35:29.400Z,46.0
2023-05-24T10:38:25.947Z,58.0
2023-05-24T10:41:26.144Z,61.0
2023-05-24T10:44:35.638Z,132.0
2023-05-24T10:47:26.060Z,187.0
2023-05-24T10:50:25.817Z,111.0
2023-05-24T10:53:25.591Z,227.0
2023-05-24T10:56:35.499Z,151.0
2023-05-24T10:59:25.680Z,367.0
2023-05-24T11:02:35.930Z,147.0
2023-05-24T11:05:25.952Z,87.0
2023-05-24T11:08:26.005Z,50.0
2023-05-24T11:11:35.693Z,46.0
2023-05-24T11:14:25.635Z,478.0
2023-05-24T11:17:27.386Z,614.0
2023-05-24T11:20:26.424Z,155.0
2023-05-24T11:29:26.000Z,115.0
2023-05-24T11:32:31.069Z,151.0
2023-05-24T11:35:25.746Z,76.0
2023-05-24T11:38:35.658Z,117.0
2023-05-24T11:41:25.921Z,59.0
2023-05-24T11:44:25.574Z,78.0
2023-05-24T11:47:26.167Z,203.0
2023-05-24T11:50:45.958Z,109.0
2023-05-24T11:53:25.608Z,341.0
2023-05-24T11:56:25.514Z,107.0
2023-05-24T11:59:25.500Z,121.0
2023-05-24T12:02:25.934Z,39.0
2023-05-24T12:05:26.669Z,78.0
2023-05-24T12:08:28.464Z,57.0
2023-05-24T12:11:34.740Z,238.0
2023-05-24T12:14:35.395Z,137.0
2023-05-24T12:17:25.773Z,118.0
2023-05-24T12:20:46.709Z,196.0
2023-05-24T12:23:25.504Z,114.0
2023-05-24T12:26:28.614Z,177.0
2023-05-24T12:29:25.537Z,123.0
2023-05-24T12:32:25.838Z,125.0
2023-05-24T12:35:25.614Z,141.0
2023-05-24T12:38:25.614Z,179.0
2023-05-24T12:41:35.317Z,131.0
2023-05-24T12:44:25.579Z,490.0
2023-05-24T12:47:26.007Z,473.0
2023-05-24T12:50:25.844Z,193.0
2023-05-24T12:53:29.080Z,175.0
2023-05-24T12:56:25.539Z,84.0
2023-05-24T12:59:26.134Z,111.0
2023-05-24T13:02:26.477Z,371.0
2023-05-24T13:05:26.026Z,136.0
2023-05-24T13:08:25.917Z,207.0
2023-05-24T13:11:25.579Z,103.0
2023-05-24T13:14:25.555Z,135.0
2023-05-24T13:17:25.822Z,152.0
2023-05-24T13:20:25.630Z,144.0
2023-05-24T13:23:25.556Z,70.0
2023-05-24T13:26:25.973Z,78.0
2023-05-24T13:30:00.531Z,189.0
2023-05-24T13:35:26.853Z,86.0
2023-05-24T13:38:25.557Z,74.0
2023-05-24T13:41:35.829Z,134.0
2023-05-24T13:44:26.563Z,112.0
2023-05-24T13:47:35.755Z,171.0
2023-05-24T13:50:25.772Z,91.0
2023-05-24T13:53:25.584Z,60.0
2023-05-24T13:56:25.497Z,80.0
2023-05-24T13:59:35.361Z,84.0
2023-05-24T14:02:26.668Z,120.0
2023-05-24T14:05:35.990Z,223.0
2023-05-24T14:08:25.928Z,143.0
2023-05-24T14:11:26.258Z,109.0
2023-05-24T14:14:59.969Z,81.0
2023-05-24T14:20:25.678Z,112.0
2023-05-24T14:23:25.629Z,112.0
2023-05-24T14:26:25.556Z,107.0
2023-05-24T14:29:35.388Z,98.0
2023-05-24T14:32:25.874Z,176.0
2023-05-24T14:35:27.140Z,207.0
2023-05-24T14:38:25.672Z,184.0
2023-05-24T14:41:25.914Z,207.0
2023-05-24T15:05:26.387Z,366.0
2023-05-24T15:08:25.893Z,174.0
2023-05-24T15:11:25.803Z,431.0
2023-05-24T15:14:25.851Z,197.0
2023-05-24T15:17:26.328Z,229.0
2023-05-24T15:20:26.338Z,206.0
2023-05-24T15:23:34.258Z,103.0
2023-05-24T15:27:10.225Z,138.0
2023-05-24T15:32:43.415Z,173.0
2023-05-24T15:38:33.342Z,172.0
2023-05-24T15:41:27.914Z,133.0
2023-05-24T15:44:25.788Z,135.0
2023-05-24T15:47:25.899Z,142.0
2023-05-24T15:50:36.226Z,195.0
2023-05-24T15:53:42.445Z,133.0
2023-05-24T15:56:25.746Z,296.0
2023-05-24T16:02:26.218Z,168.0
2023-05-24T16:05:37.406Z,234.0
2023-05-24T16:08:25.733Z,155.0
2023-05-24T16:11:25.771Z,389.0
2023-05-24T16:14:26.653Z,224.0
2023-05-24T16:17:27.874Z,222.0
2023-05-24T16:20:25.967Z,116.0
2023-05-24T16:23:26.164Z,154.0
2023-05-24T16:26:27.230Z,289.0
2023-05-24T16:29:25.933Z,122.0
2023-05-24T16:32:25.913Z,134.0
2023-05-24T16:35:35.754Z,167.0
2023-05-24T16:38:28.931Z,475.0
2023-05-24T16:41:25.711Z,278.0
2023-05-24T16:44:27.060Z,177.0
2023-05-24T16:47:28.060Z,112.0
2023-05-24T16:50:26.049Z,203.0
2023-05-24T16:53:25.888Z,177.0
2023-05-24T16:56:30.880Z,154.0
2023-05-24T16:59:25.874Z,139.0
2023-05-24T17:02:26.046Z,180.0
2023-05-24T17:05:26.553Z,97.0
2023-05-24T17:08:28.660Z,209.0
2023-05-24T17:11:25.800Z,810.0
2023-05-24T17:14:25.726Z,160.0
2023-05-24T17:17:28.015Z,186.0
2023-05-24T17:20:26.080Z,407.0
2023-05-24T17:23:25.785Z,266.0
2023-05-24T17:26:25.807Z,397.0
2023-05-24T17:29:31.179Z,367.0
2023-05-24T17:32:26.163Z,355.0
2023-05-24T17:35:25.712Z,253.0
2023-05-24T17:38:26.524Z,152.0
2023-05-24T17:41:25.775Z,284.0
2023-05-24T17:44:25.766Z,203.0
2023-05-24T17:47:29.762Z,138.0
2023-05-24T17:50:25.896Z,312.0
2023-05-24T17:53:35.626Z,263.0
2023-05-24T17:56:25.654Z,139.0
2023-05-24T17:59:26.145Z,153.0
2023-05-24T18:02:26.706Z,258.0
2023-05-24T18:05:28.609Z,125.0
2023-05-24T18:08:25.661Z,130.0
2023-05-24T18:11:26.008Z,113.0
2023-05-24T18:14:25.812Z,965.0
2023-05-24T18:17:25.998Z,312.0
2023-05-24T18:20:26.789Z,155.0
2023-05-24T18:23:25.954Z,477.0
2023-05-24T18:26:35.430Z,100.0
2023-05-24T18:29:26.094Z,102.0
2023-05-24T18:32:26.290Z,204.0
2023-05-24T18:35:31.585Z,216.0
2023-05-24T18:38:26.195Z,119.0
2023-05-24T18:41:26.108Z,61.0
2023-05-24T18:44:25.887Z,57.0
2023-05-24T18:47:26.232Z,361.0
2023-05-24T18:50:26.099Z,131.0
2023-05-24T18:53:26.036Z,227.0
2023-05-24T18:56:25.753Z,274.0
2023-05-24T18:59:28.479Z,156.0
2023-05-24T19:02:26.361Z,130.0
2023-05-24T19:05:26.083Z,134.0
2023-05-24T19:08:25.985Z,388.0
2023-05-24T19:11:25.865Z,308.0
2023-05-24T19:14:25.751Z,374.0
2023-05-24T19:17:25.986Z,223.0
2023-05-24T19:20:25.951Z,223.0
2023-05-24T19:23:25.759Z,276.0
2023-05-24T19:26:25.923Z,274.0
2023-05-24T19:29:35.495Z,245.0
2023-05-24T19:32:25.864Z,251.0
2023-05-24T19:35:35.682Z,296.0
2023-05-24T19:38:25.951Z,288.0
2023-05-24T19:41:27.321Z,753.0
2023-05-24T19:44:28.321Z,417.0
2023-05-24T19:47:25.999Z,583.0
2023-05-24T19:50:25.727Z,231.0
2023-05-24T19:53:25.720Z,192.0
2023-05-24T19:56:25.907Z,170.0
2023-05-24T19:59:25.707Z,217.0
2023-05-24T20:02:25.980Z,118.0
2023-05-24T20:05:26.797Z,93.0
2023-05-24T20:08:25.799Z,112.0
2023-05-24T20:11:25.664Z,120.0
2023-05-24T20:14:25.741Z,142.0
2023-05-24T20:17:25.884Z,121.0
2023-05-24T20:20:25.988Z,135.0
2023-05-24T20:23:25.857Z,131.0
2023-05-24T20:26:25.768Z,240.0
2023-05-24T20:29:35.501Z,173.0
2023-05-24T20:32:26.189Z,202.0
2023-05-24T20:35:25.904Z,140.0
2023-05-24T20:38:25.749Z,100.0
2023-05-24T20:41:31.576Z,148.0
2023-05-24T20:44:25.760Z,123.0
2023-05-24T20:47:27.537Z,97.0
2023-05-24T20:50:25.915Z,99.0
2023-05-24T20:53:25.931Z,97.0
2023-05-24T20:56:25.809Z,109.0
2023-05-24T20:59:25.722Z,103.0
2023-05-24T21:02:26.260Z,105.0
2023-05-24T21:05:26.105Z,99.0
2023-05-24T21:08:27.266Z,98.0
2023-05-24T21:11:25.691Z,191.0
2023-05-24T21:14:25.735Z,144.0
2023-05-24T21:17:26.456Z,121.0
2023-05-24T21:20:25.850Z,109.0
2023-05-24T21:23:27.060Z,78.0
2023-05-24T21:26:25.704Z,99.0
2023-05-24T21:29:25.797Z,95.0
2023-05-24T21:32:25.949Z,152.0
2023-05-24T21:35:25.794Z,84.0
2023-05-24T21:38:25.854Z,123.0
2023-05-24T21:41:35.961Z,92.0
2023-05-24T21:44:25.979Z,122.0
2023-05-24T21:47:26.034Z,149.0
2023-05-24T21:50:25.798Z,117.0
2023-05-24T21:53:25.722Z,110.0
2023-05-24T21:56:25.971Z,163.0
2023-05-24T21:59:25.853Z,94.0
2023-05-24T22:02:26.246Z,72.0
2023-05-24T22:05:27.827Z,159.0
2023-05-24T22:08:25.727Z,112.0
2023-05-24T22:11:25.777Z,132.0
2023-05-24T22:14:25.690Z,108.0
2023-05-24T22:17:26.099Z,187.0
2023-05-24T22:20:35.765Z,111.0
2023-05-24T22:23:25.848Z,127.0
2023-05-24T22:26:25.948Z,115.0
2023-05-24T22:29:26.655Z,78.0
2023-05-24T22:32:26.151Z,95.0
2023-05-24T22:35:25.863Z,132.0
2023-05-24T22:38:25.670Z,91.0
2023-05-24T22:41:26.785Z,75.0
2023-05-24T22:44:25.918Z,58.0
2023-05-24T22:47:26.419Z,81.0
2023-05-24T22:50:25.745Z,104.0
2023-05-24T22:53:25.644Z,138.0
2023-05-24T22:56:25.735Z,382.0
2023-05-24T22:59:25.680Z,180.0
2023-05-24T23:02:26.124Z,108.0
2023-05-24T23:05:35.786Z,81.0
2023-05-24T23:08:25.921Z,97.0
2023-05-24T23:11:25.900Z,173.0
2023-05-24T23:14:25.740Z,110.0
2023-05-24T23:17:25.894Z,101.0
2023-05-24T23:20:25.935Z,165.0
2023-05-24T23:23:25.777Z,169.0
2023-05-24T23:26:25.775Z,152.0
2023-05-24T23:29:26.050Z,112.0
2023-05-24T23:32:26.158Z,113.0
2023-05-24T23:35:26.415Z,173.0
2023-05-24T23:38:25.787Z,285.0
2023-05-24T23:41:25.920Z,214.0
2023-05-24T23:44:29.752Z,91.0
2023-05-24T23:47:26.166Z,102.0
2023-05-24T23:50:25.830Z,23.0
2023-05-24T23:53:25.755Z,200.0
2023-05-24T23:56:25.934Z,154.0
2023-05-24T23:59:25.744Z,89.0
